Time;durP1;ratioP1;P1;durP2;ratioP2;P2;SDS_P1;SDS_P2;PMS_P1;PMS_P2;Temp;Humidity;BMP_temperature;BMP_pressure;BME280_temperature;BME280_humidity;BME280_pressure;Samples;Min_cycle;Max_cycle;Signal;HPM_P1;HPM_P2
2022/08/11 00:01:05;;;;;;;4.4;2.6;;;;;;;17.21;70.0957;942.0068;;;;
2022/08/11 00:03:33;;;;;;;4.2;2.7;;;;;;;17.2;70.16504;941.957;;;;
2022/08/11 00:05:58;;;;;;;4.1;2.6;;;;;;;17.15;70.2373;941.9455;;;;
2022/08/11 00:08:23;;;;;;;5;2.9;;;;;;;17.07;70.44336;941.923;;;;
2022/08/11 00:10:52;;;;;;;3.6;2.5;;;;;;;17.05;70.95215;941.9127;;;;
2022/08/11 00:13:17;;;;;;;4.4;2.6;;;;;;;17.02;70.79688;941.937;;;;
2022/08/11 00:15:45;;;;;;;3.6;2.5;;;;;;;16.93;70.98926;941.8443;;;;
2022/08/11 00:18:10;;;;;;;3.7;2.6;;;;;;;16.81;71.18066;941.8901;;;;
2022/08/11 00:20:35;;;;;;;3.5;2.6;;;;;;;16.74;71.52832;941.9542;;;;
2022/08/11 00:23:03;;;;;;;3.1;2.7;;;;;;;16.71;71.6377;941.9681;;;;
2022/08/11 00:25:28;;;;;;;4.4;2.8;;;;;;;16.58;72.0918;941.918;;;;
2022/08/11 00:27:56;;;;;;;4.7;3.2;;;;;;;16.22;73.76758;941.9049;;;;
2022/08/11 00:30:23;;;;;;;3.3;2.5;;;;;;;16.3;73.45703;941.9149;;;;
2022/08/11 00:32:48;;;;;;;5.2;3.1;;;;;;;16.27;73.64746;941.8572;;;;
2022/08/11 00:38:53;;;;;;;2.8;2.4;;;;;;;16.31;73.60742;941.8899;;;;
2022/08/11 00:41:19;;;;;;;3;2.7;;;;;;;16.34;73.46289;941.913;;;;
2022/08/11 00:43:44;;;;;;;3.8;2.8;;;;;;;16.39;73.30859;941.8829;;;;
2022/08/11 00:46:18;;;;;;;4.1;3.1;;;;;;;16.39;73.31055;941.9158;;;;
2022/08/11 00:48:44;;;;;;;4.2;2.6;;;;;;;16.38;73.25098;941.8998;;;;
2022/08/11 00:51:11;;;;;;;3.3;2.4;;;;;;;16.31;73.51563;941.8691;;;;
2022/08/11 00:53:36;;;;;;;4.2;2.7;;;;;;;16.28;73.67285;941.8499;;;;
2022/08/11 00:56:01;;;;;;;3;2.5;;;;;;;16.25;73.51758;941.8847;;;;
2022/08/11 00:58:26;;;;;;;4.7;2.9;;;;;;;16.16;73.76855;941.8769;;;;
2022/08/11 01:00:53;;;;;;;3.5;2.7;;;;;;;16.1;73.88672;941.8178;;;;
2022/08/11 01:03:19;;;;;;;3.1;2.7;;;;;;;16.01;74.35547;941.8775;;;;
2022/08/11 01:05:47;;;;;;;4.5;2.4;;;;;;;16.02;74.06934;941.8761;;;;
2022/08/11 01:08:12;;;;;;;4.1;2.6;;;;;;;16;74.05371;941.9386;;;;
2022/08/11 01:10:39;;;;;;;3;2.7;;;;;;;15.96;74.25488;941.8978;;;;
2022/08/11 01:13:04;;;;;;;2.7;2.5;;;;;;;15.87;74.69043;941.8678;;;;
2022/08/11 01:15:36;;;;;;;2.7;2.5;;;;;;;15.86;74.75879;941.8606;;;;
2022/08/11 01:18:00;;;;;;;5.2;2.7;;;;;;;15.73;75.38379;941.8433;;;;
2022/08/11 01:20:25;;;;;;;5.3;2.8;;;;;;;15.76;75.16895;941.8761;;;;
2022/08/11 01:22:51;;;;;;;8.5;3.5;;;;;;;15.76;75.16797;941.8094;;;;
2022/08/11 01:26:57;;;;;;;6.6;3;;;;;;;15.57;75.65625;941.7431;;;;
2022/08/11 01:29:22;;;;;;;2.7;2.5;;;;;;;15.46;76.24805;941.7933;;;;
2022/08/11 01:31:47;;;;;;;4.2;3;;;;;;;15.51;76.25781;941.8308;;;;
2022/08/11 01:34:14;;;;;;;3.8;2.6;;;;;;;15.71;75.33301;941.8298;;;;
2022/08/11 01:36:44;;;;;;;3.4;2.5;;;;;;;15.73;75.07031;941.7775;;;;
2022/08/11 01:39:08;;;;;;;3;2.7;;;;;;;15.71;75.0791;941.8081;;;;
2022/08/11 01:44:46;;;;;;;2.9;2.6;;;;;;;15.76;74.76465;941.7605;;;;
2022/08/11 01:47:49;;;;;;;3.1;2.8;;;;;;;15.65;75.34668;941.704;;;;
2022/08/11 01:49:37;;;;;;;2.9;2.6;;;;;;;15.57;75.75879;941.7101;;;;
2022/08/11 01:52:03;;;;;;;3.3;2.6;;;;;;;15.53;75.92773;941.6846;;;;
2022/08/11 01:54:27;;;;;;;2.7;2.5;;;;;;;15.56;75.82617;941.6685;;;;
2022/08/11 01:56:55;;;;;;;3;2.7;;;;;;;15.33;76.57031;941.6337;;;;
2022/08/11 01:59:19;;;;;;;3.7;2.8;;;;;;;15.32;76.53613;941.6401;;;;
2022/08/11 02:01:44;;;;;;;3.3;2.8;;;;;;;15.32;76.66309;941.6065;;;;
2022/08/11 02:04:09;;;;;;;3.8;2.9;;;;;;;15.45;76.00586;941.6127;;;;
2022/08/11 02:08:59;;;;;;;3;2.8;;;;;;;15.28;76.57617;941.5978;;;;
2022/08/11 02:11:32;;;;;;;4.3;2.7;;;;;;;15.24;76.77734;941.5555;;;;
2022/08/11 02:13:53;;;;;;;4.6;3;;;;;;;15.09;77.46387;941.4826;;;;
2022/08/11 02:16:20;;;;;;;3.8;2.8;;;;;;;14.91;78.33301;941.4924;;;;
2022/08/11 02:23:42;;;;;;;5;3;;;;;;;15.14;77.33496;941.4094;;;;
2022/08/11 02:26:14;;;;;;;3.3;3;;;;;;;15.25;76.9502;941.3981;;;;
2022/08/11 02:28:39;;;;;;;4.9;3.3;;;;;;;15.29;76.47363;941.4141;;;;
2022/08/11 02:33:34;;;;;;;3.9;3;;;;;;;15.19;76.6875;941.3066;;;;
2022/08/11 02:35:58;;;;;;;3;2.7;;;;;;;15.27;76.37793;941.3796;;;;
2022/08/11 02:38:27;;;;;;;4.8;2.9;;;;;;;15.09;76.96973;941.3872;;;;
2022/08/11 02:40:52;;;;;;;4.3;2.9;;;;;;;14.98;77.42383;941.4;;;;
2022/08/11 02:43:17;;;;;;;5.3;3;;;;;;;15.01;77.13965;941.387;;;;
2022/08/11 02:45:45;;;;;;;4.1;2.8;;;;;;;15.05;77.07715;941.4121;;;;
2022/08/11 02:50:34;;;;;;;3.2;2.7;;;;;;;15.09;76.96777;941.3558;;;;
2022/08/11 02:53:00;;;;;;;3.3;2.7;;;;;;;15.14;76.51563;941.3814;;;;
2022/08/11 02:55:24;;;;;;;4.8;3.1;;;;;;;15.12;76.68555;941.2876;;;;
2022/08/11 02:57:49;;;;;;;7.6;3.3;;;;;;;14.8;78.06055;941.327;;;;
2022/08/11 03:00:16;;;;;;;3.3;2.8;;;;;;;14.58;78.97656;941.3231;;;;
2022/08/11 03:03:01;;;;;;;3.8;2.8;;;;;;;14.4;79.94727;941.2698;;;;
2022/08/11 03:05:25;;;;;;;3.7;3.3;;;;;;;14.33;80.52051;941.2891;;;;
2022/08/11 03:07:51;;;;;;;2.9;2.7;;;;;;;14.54;79.8457;941.3088;;;;
2022/08/11 03:10:17;;;;;;;3.5;2.5;;;;;;;14.72;78.83984;941.2647;;;;
2022/08/11 03:17:38;;;;;;;3.2;2.9;;;;;;;14.54;79.85547;941.2751;;;;
2022/08/11 03:20:24;;;;;;;3.9;3.1;;;;;;;14.51;79.96582;941.2375;;;;
2022/08/11 03:22:49;;;;;;;3.1;2.8;;;;;;;14.6;79.37305;941.2646;;;;
2022/08/11 03:25:18;;;;;;;5.8;3;;;;;;;14.74;78.80859;941.2575;;;;
2022/08/11 03:27:43;;;;;;;3.3;3;;;;;;;14.72;78.89844;941.2519;;;;
2022/08/11 03:30:08;;;;;;;5;2.8;;;;;;;14.84;78.34375;941.2992;;;;
2022/08/11 03:32:33;;;;;;;4.3;3;;;;;;;14.67;79.00391;941.2424;;;;
2022/08/11 03:35:00;;;;;;;4.1;3.2;;;;;;;14.58;79.63379;941.3769;;;;
2022/08/11 03:37:50;;;;;;;3.6;3.1;;;;;;;14.69;78.88086;941.3145;;;;
2022/08/11 03:40:03;;;;;;;4.2;3.5;;;;;;;14.64;79.24023;941.329;;;;
2022/08/11 03:42:31;;;;;;;5.9;3.4;;;;;;;14.45;80.02539;941.3585;;;;
2022/08/11 03:44:58;;;;;;;3.6;3;;;;;;;14.34;80.68359;941.3931;;;;
2022/08/11 03:47:24;;;;;;;5.4;3.5;;;;;;;14.47;80.10938;941.3248;;;;
2022/08/11 03:49:49;;;;;;;5.9;3.3;;;;;;;14.52;79.78516;941.312;;;;
2022/08/11 03:52:14;;;;;;;4.2;3.2;;;;;;;14.24;81.26563;941.2722;;;;
2022/08/11 03:54:40;;;;;;;4;2.9;;;;;;;14.47;80.5127;941.3352;;;;
2022/08/11 03:57:11;;;;;;;4.8;3;;;;;;;14.57;79.42578;941.2927;;;;
2022/08/11 04:03:21;;;;;;;4.3;3.1;;;;;;;14.19;81.15137;941.3464;;;;
2022/08/11 04:05:47;;;;;;;3.2;3;;;;;;;14.11;81.46875;941.348;;;;
2022/08/11 04:08:14;;;;;;;3.7;3.4;;;;;;;14.02;81.74121;941.3239;;;;
2022/08/11 04:11:05;;;;;;;8.7;4.2;;;;;;;13.93;82.41602;941.3091;;;;
2022/08/11 04:13:30;;;;;;;4.5;3.1;;;;;;;13.69;83.71582;941.3035;;;;
2022/08/11 04:16:08;;;;;;;4.4;3.3;;;;;;;13.65;83.9834;941.2234;;;;
2022/08/11 04:18:38;;;;;;;4.1;3.5;;;;;;;13.69;83.93457;941.1611;;;;
2022/08/11 04:21:25;;;;;;;6.7;3.7;;;;;;;13.79;83.52637;941.2045;;;;
2022/08/11 04:23:50;;;;;;;5.2;3.8;;;;;;;13.84;83.50195;941.2064;;;;
2022/08/11 04:26:18;;;;;;;5.4;4.2;;;;;;;13.96;82.97168;941.2427;;;;
2022/08/11 04:28:43;;;;;;;5;4.2;;;;;;;13.91;83.27246;941.2842;;;;
2022/08/11 04:31:08;;;;;;;6.8;4.5;;;;;;;14;82.99219;941.2963;;;;
2022/08/11 04:33:33;;;;;;;14.2;7.8;;;;;;;14.1;82.35449;941.3408;;;;
2022/08/11 04:35:58;;;;;;;9.7;6.8;;;;;;;14.1;82.68848;941.2662;;;;
2022/08/11 04:38:26;;;;;;;7.8;5.5;;;;;;;14.08;82.58203;941.2903;;;;
2022/08/11 04:40:55;;;;;;;5.6;4.5;;;;;;;14.19;82.0957;941.3144;;;;
2022/08/11 04:43:26;;;;;;;6.2;4.1;;;;;;;14.23;81.99902;941.3443;;;;
2022/08/11 04:45:50;;;;;;;4.1;3.6;;;;;;;14.32;81.70605;941.3859;;;;
2022/08/11 05:06:43;;;;;;;5.2;3.7;;;;;;;14.53;80.84668;941.4473;;;;
2022/08/11 05:09:10;;;;;;;3.9;3.1;;;;;;;14.56;80.66699;941.5034;;;;
2022/08/11 05:11:35;;;;;;;4.6;3.2;;;;;;;14.64;80.15039;941.5422;;;;
2022/08/11 05:35:53;;;;;;;6.4;3.2;;;;;;;16.12;76.9082;941.3364;;;;
2022/08/11 05:58:19;;;;;;;4.5;2.3;;;;;;;20.25;60.7168;941.202;;;;
2022/08/11 06:01:38;;;;;;;3.5;2.4;;;;;;;20.98;58.12793;941.1222;;;;
2022/08/11 06:06:16;;;;;;;3.4;2;;;;;;;22.72;53.20215;941.0627;;;;
2022/08/11 06:08:41;;;;;;;2.7;2.4;;;;;;;23.75;50.10059;941.1067;;;;
2022/08/11 06:11:07;;;;;;;3.8;2.2;;;;;;;24.22;49.27148;941.1064;;;;
2022/08/11 06:13:35;;;;;;;3.4;2.4;;;;;;;24.82;47.52051;941.074;;;;
2022/08/11 06:16:03;;;;;;;5.1;2.5;;;;;;;26.01;44.51367;941.0366;;;;
2022/08/11 06:18:28;;;;;;;2.7;2.2;;;;;;;26.05;44.73047;941.0056;;;;
2022/08/11 06:20:53;;;;;;;2.9;2;;;;;;;26.17;43.7832;941.0345;;;;
2022/08/11 06:23:21;;;;;;;4;2.1;;;;;;;25.03;45.99707;941.1025;;;;
2022/08/11 06:25:43;;;;;;;2.5;2.2;;;;;;;26.46;42.97168;941.0609;;;;
2022/08/11 06:28:13;;;;;;;2.7;1.9;;;;;;;26.59;42.95996;941.0489;;;;
2022/08/11 06:30:46;;;;;;;2.5;2.2;;;;;;;26.68;41.66602;941.0535;;;;
2022/08/11 06:33:18;;;;;;;5.1;2.7;;;;;;;25.26;49.25488;941.1642;;;;
2022/08/11 06:35:44;;;;;;;7.2;2.6;;;;;;;25.1;49.47461;941.0623;;;;
2022/08/11 06:38:08;;;;;;;2.9;2.5;;;;;;;24.44;51.41699;941.1353;;;;
2022/08/11 06:40:36;;;;;;;3.6;2.7;;;;;;;24.84;50.2832;941.0579;;;;
2022/08/11 06:43:01;;;;;;;3.2;2.4;;;;;;;25;48.70801;941.1255;;;;
2022/08/11 06:45:27;;;;;;;2.3;2.1;;;;;;;25.52;47.74805;941.097;;;;
2022/08/11 06:47:52;;;;;;;3.5;2.7;;;;;;;24.82;49.06543;941.0536;;;;
2022/08/11 06:52:46;;;;;;;4.2;2.3;;;;;;;26.04;45.75879;941.0255;;;;
2022/08/11 06:55:11;;;;;;;2.4;2.1;;;;;;;26.67;42.9209;941.0418;;;;
2022/08/11 07:00:28;;;;;;;2.6;2.1;;;;;;;29.61;38.57715;940.9598;;;;
2022/08/11 07:02:32;;;;;;;3.1;1.9;;;;;;;30.01;37.07227;941.0275;;;;
2022/08/11 07:04:56;;;;;;;2.2;2;;;;;;;28.47;39.43066;941.084;;;;
2022/08/11 07:17:06;;;;;;;3.7;2.1;;;;;;;29.38;39.06934;941.0757;;;;
2022/08/11 07:29:12;;;;;;;3.4;2.2;;;;;;;27.91;41.55469;941.0128;;;;
2022/08/11 07:31:40;;;;;;;3.8;2.4;;;;;;;28.34;40.7627;941.0426;;;;
2022/08/11 07:34:05;;;;;;;3;2.2;;;;;;;28.71;39.60742;940.9797;;;;
2022/08/11 07:36:33;;;;;;;2.8;2.3;;;;;;;28.72;41.47559;941.0053;;;;
2022/08/11 07:38:57;;;;;;;2.1;1.9;;;;;;;28.66;41.18359;941.038;;;;
2022/08/11 07:41:27;;;;;;;4.2;1.9;;;;;;;29.56;38.42969;940.9294;;;;
2022/08/11 07:43:50;;;;;;;3.6;2.1;;;;;;;29.57;37.60742;940.9492;;;;
2022/08/11 07:53:33;;;;;;;2.2;2;;;;;;;30.78;37.41016;940.962;;;;
2022/08/11 07:56:04;;;;;;;2.3;2;;;;;;;30.45;37.1084;940.9886;;;;
2022/08/11 08:17:56;;;;;;;2.6;2.1;;;;;;;29.68;37.61719;940.8652;;;;
2022/08/11 08:20:18;;;;;;;2.5;1.9;;;;;;;29.58;38.52734;940.8337;;;;
2022/08/11 08:22:47;;;;;;;2.1;1.9;;;;;;;31.24;36.92188;940.8207;;;;
2022/08/11 08:25:12;;;;;;;3.2;2.3;;;;;;;31.86;35.85742;940.8186;;;;
2022/08/11 08:27:42;;;;;;;3.1;2.1;;;;;;;32.42;34.6543;940.8488;;;;
2022/08/11 08:32:30;;;;;;;5.8;2.1;;;;;;;29.22;40.00879;940.709;;;;
2022/08/11 08:34:55;;;;;;;3.2;2;;;;;;;29.7;38.65625;940.7438;;;;
2022/08/11 08:37:24;;;;;;;2.1;1.9;;;;;;;29.66;38.7002;940.7308;;;;
2022/08/11 08:39:49;;;;;;;3.5;1.8;;;;;;;30.4;38.30957;940.7102;;;;
2022/08/11 08:42:14;;;;;;;3;1.9;;;;;;;32.26;35.36133;940.7277;;;;
2022/08/11 08:44:43;;;;;;;3.1;1.9;;;;;;;31.32;36.67676;940.7241;;;;
2022/08/11 08:47:08;;;;;;;1.9;1.8;;;;;;;30.13;39.74414;940.7737;;;;
2022/08/11 08:49:57;;;;;;;2;1.8;;;;;;;32.2;35.02148;940.7177;;;;
2022/08/11 08:52:22;;;;;;;2.6;1.7;;;;;;;34.4;32.02246;940.7169;;;;
2022/08/11 08:54:47;;;;;;;4.1;1.9;;;;;;;33.56;33.32227;940.7869;;;;
2022/08/11 08:57:16;;;;;;;2.5;2;;;;;;;34.75;30.63672;940.668;;;;
2022/08/11 08:59:41;;;;;;;2.6;1.7;;;;;;;34.67;30.10059;940.6664;;;;
2022/08/11 09:02:06;;;;;;;3.7;2.2;;;;;;;35.58;28.37207;940.6912;;;;
2022/08/11 09:04:35;;;;;;;2.6;1.7;;;;;;;36.17;27.6709;940.6896;;;;
2022/08/11 09:07:00;;;;;;;2.4;1.7;;;;;;;34.95;29.87793;940.653;;;;
2022/08/11 09:09:25;;;;;;;2.3;1.7;;;;;;;34.71;30.17578;940.6294;;;;
2022/08/11 09:11:54;;;;;;;2.4;1.6;;;;;;;35.6;28.38672;940.6216;;;;
2022/08/11 09:16:14;;;;;;;2.2;2;;;;;;;35.5;28.71875;940.6624;;;;
2022/08/11 09:18:24;;;;;;;2.8;1.8;;;;;;;33.29;33.25488;940.6319;;;;
2022/08/11 09:28:06;;;;;;;40;14.6;;;;;;;35.39;31.00488;940.6019;;;;
2022/08/11 09:30:31;;;;;;;27.4;12.2;;;;;;;35.62;30.42871;940.5806;;;;
2022/08/11 09:33:01;;;;;;;4.8;3.1;;;;;;;33.37;33.28516;940.5583;;;;
2022/08/11 09:35:32;;;;;;;3.1;1.8;;;;;;;33.4;32.90137;940.6333;;;;
2022/08/11 09:40:29;;;;;;;2.4;1.9;;;;;;;32.22;34.79492;940.5825;;;;
2022/08/11 09:45:21;;;;;;;2.3;1.9;;;;;;;31.84;35.23242;940.5472;;;;
2022/08/11 09:47:58;;;;;;;3.4;1.9;;;;;;;31.57;36.69727;940.5403;;;;
2022/08/11 09:50:25;;;;;;;3.8;2.2;;;;;;;30.55;39.82813;940.5524;;;;
2022/08/11 09:52:50;;;;;;;2.4;2;;;;;;;30.32;39.83105;940.5094;;;;
2022/08/11 09:55:15;;;;;;;2.8;2.3;;;;;;;29.82;39.65625;940.4966;;;;
2022/08/11 10:00:10;;;;;;;3.6;2.7;;;;;;;29.13;43.22754;940.5474;;;;
2022/08/11 10:02:35;;;;;;;2.3;2.1;;;;;;;29.42;42.63574;940.5172;;;;
2022/08/11 10:07:02;;;;;;;3.8;2.3;;;;;;;29.48;42.00977;940.5486;;;;
2022/08/11 10:07:32;;;;;;;3.7;2.1;;;;;;;29.76;39.48438;940.5555;;;;
2022/08/11 10:09:57;;;;;;;4.7;2.6;;;;;;;30.41;37.59375;940.4705;;;;
2022/08/11 10:12:23;;;;;;;4.2;2;;;;;;;30.28;39.08691;940.5875;;;;
2022/08/11 10:17:19;;;;;;;3.2;2.3;;;;;;;29.65;40.91699;940.5516;;;;
2022/08/11 10:19:46;;;;;;;2.9;2.2;;;;;;;29.29;40.37207;940.4701;;;;
2022/08/11 10:27:02;;;;;;;4.2;2.6;;;;;;;28.3;43.67188;940.532;;;;
2022/08/11 10:34:19;;;;;;;3.5;2.4;;;;;;;28.88;42.70313;940.5004;;;;
2022/08/11 10:36:46;;;;;;;2.3;2.1;;;;;;;28.08;44.92188;940.5167;;;;
2022/08/11 10:39:10;;;;;;;4;2.9;;;;;;;27.94;44.95508;940.5108;;;;
2022/08/11 10:44:03;;;;;;;3.9;2.5;;;;;;;28.45;44.57715;940.4821;;;;
2022/08/11 10:48:53;;;;;;;2.8;2.2;;;;;;;29.28;43.01563;940.4214;;;;
2022/08/11 10:51:19;;;;;;;2.6;2.4;;;;;;;29.31;42.74414;940.3845;;;;
2022/08/11 10:58:50;;;;;;;4.4;2.6;;;;;;;29.87;41.44922;940.2919;;;;
2022/08/11 11:01:00;;;;;;;6;2.7;;;;;;;30.2;40.91895;940.3725;;;;
2022/08/11 11:03:33;;;;;;;3.3;2.5;;;;;;;30.41;41.43945;940.3144;;;;
2022/08/11 11:05:56;;;;;;;3.4;2.4;;;;;;;30.51;40.56543;940.2891;;;;
2022/08/11 11:10:49;;;;;;;3.5;2.7;;;;;;;30.01;42.29785;940.191;;;;
2022/08/11 11:18:12;;;;;;;4.4;2.9;;;;;;;30.08;41.79199;940.2127;;;;
2022/08/11 11:20:37;;;;;;;2.9;2.4;;;;;;;30.69;38.91992;940.1589;;;;
2022/08/11 11:23:06;;;;;;;2.3;2.1;;;;;;;31.18;39.63184;940.262;;;;
2022/08/11 11:25:33;;;;;;;6.6;2.8;;;;;;;31.17;39.04492;940.241;;;;
2022/08/11 11:27:58;;;;;;;3;2.4;;;;;;;30.63;39.35742;940.2281;;;;
2022/08/11 11:30:24;;;;;;;4.2;2.4;;;;;;;30.33;41.01465;940.2029;;;;
2022/08/11 11:32:52;;;;;;;3;2.4;;;;;;;30.89;39.57031;940.1697;;;;
2022/08/11 11:35:26;;;;;;;3.7;2.7;;;;;;;30.8;39.87305;940.2034;;;;
2022/08/11 11:37:50;;;;;;;3.1;2.8;;;;;;;31.22;38.23633;940.1479;;;;
2022/08/11 11:40:20;;;;;;;2.9;2.5;;;;;;;31.13;39.35156;940.1417;;;;
2022/08/11 11:42:44;;;;;;;2.6;2.4;;;;;;;31.18;38.35156;940.1195;;;;
2022/08/11 11:45:17;;;;;;;4.8;2.4;;;;;;;30.89;40.39551;940.1609;;;;
2022/08/11 11:47:45;;;;;;;5.2;2.8;;;;;;;30.72;40.21387;940.0546;;;;
2022/08/11 11:50:11;;;;;;;3.6;2.5;;;;;;;30.55;39.58887;939.9986;;;;
2022/08/11 11:52:40;;;;;;;4.1;2.4;;;;;;;29.8;42.00391;939.988;;;;
2022/08/11 11:55:05;;;;;;;4.4;2.5;;;;;;;29.36;43.54785;940.0151;;;;
2022/08/11 12:02:27;;;;;;;3.2;2.6;;;;;;;28.92;46.00488;939.9756;;;;
2022/08/11 12:08:16;;;;;;;3.6;2.6;;;;;;;28.65;45.00195;939.9761;;;;
2022/08/11 12:10:27;;;;;;;4.1;3;;;;;;;28.39;45.32031;939.9019;;;;
2022/08/11 12:15:26;;;;;;;4;2.7;;;;;;;28.84;44.49707;939.8155;;;;
2022/08/11 12:17:57;;;;;;;4.3;2.8;;;;;;;28.78;43.3252;939.7913;;;;
2022/08/11 12:20:28;;;;;;;5.1;2.7;;;;;;;28.54;43.93262;939.782;;;;
2022/08/11 12:27:49;;;;;;;4;2.8;;;;;;;28.25;44.93848;939.8278;;;;
2022/08/11 12:30:14;;;;;;;2.7;2.5;;;;;;;28.24;46.94629;939.7791;;;;
2022/08/11 12:32:42;;;;;;;5.1;3.4;;;;;;;28.16;45.67773;939.7522;;;;
2022/08/11 12:35:14;;;;;;;2.9;2.6;;;;;;;28.07;46.27441;939.7492;;;;
2022/08/11 12:37:42;;;;;;;3.1;2.8;;;;;;;28.12;46.50488;939.7597;;;;
2022/08/11 12:51:55;;;;;;;3.2;2.4;;;;;;;27.53;48.58008;939.7427;;;;
2022/08/11 12:52:21;;;;;;;2.8;2.5;;;;;;;27.74;48.11719;939.6956;;;;
2022/08/11 12:54:46;;;;;;;4.6;2.7;;;;;;;27.78;47.5625;939.6782;;;;
2022/08/11 13:06:51;;;;;;;2.9;2.7;;;;;;;27.76;47.50195;939.6202;;;;
2022/08/11 13:09:16;;;;;;;4.1;2.7;;;;;;;27.79;45.22461;939.5425;;;;
2022/08/11 13:14:09;;;;;;;3;2.6;;;;;;;27.92;44.87012;939.618;;;;
2022/08/11 13:17:19;;;;;;;3.1;2.8;;;;;;;27.8;45.95117;939.5547;;;;
2022/08/11 13:19:00;;;;;;;3.2;2.7;;;;;;;27.94;45.33496;939.5883;;;;
2022/08/11 13:21:27;;;;;;;3.4;2.5;;;;;;;27.96;44.44629;939.5502;;;;
2022/08/11 13:23:53;;;;;;;3.1;2.5;;;;;;;27.87;46.36133;939.5062;;;;
2022/08/11 13:26:20;;;;;;;3.6;2.9;;;;;;;27.75;45.2334;939.5003;;;;
2022/08/11 13:28:45;;;;;;;3.1;2.4;;;;;;;27.89;43.70313;939.5987;;;;
2022/08/11 13:31:13;;;;;;;5.1;2.9;;;;;;;27.57;44.62109;939.5569;;;;
2022/08/11 13:33:35;;;;;;;3;2.5;;;;;;;27.77;44.21289;939.5086;;;;
2022/08/11 13:36:00;;;;;;;4;2.7;;;;;;;27.74;44.31836;939.419;;;;
2022/08/11 13:38:28;;;;;;;3;2.3;;;;;;;27.9;45.75781;939.4746;;;;
2022/08/11 13:40:55;;;;;;;2.5;2.3;;;;;;;27.86;45.71875;939.4741;;;;
2022/08/11 13:43:20;;;;;;;2.9;2.6;;;;;;;27.88;43.19141;939.4686;;;;
2022/08/11 13:45:46;;;;;;;3.7;2.5;;;;;;;27.79;44.82129;939.517;;;;
2022/08/11 13:48:11;;;;;;;3.6;2.5;;;;;;;27.71;45.41895;939.5147;;;;
2022/08/11 13:51:32;;;;;;;2.6;2.3;;;;;;;27.98;43.75879;939.4976;;;;
2022/08/11 13:53:00;;;;;;;2.4;2.2;;;;;;;28.09;44.50586;939.4664;;;;
2022/08/11 13:55:25;;;;;;;3.4;2.5;;;;;;;28.1;44.24609;939.4386;;;;
2022/08/11 13:57:52;;;;;;;3.2;2.5;;;;;;;27.55;45.81738;939.4405;;;;
2022/08/11 14:00:18;;;;;;;4.1;2.5;;;;;;;27.45;45.35645;939.4621;;;;
2022/08/11 14:02:50;;;;;;;2.6;2.4;;;;;;;27.47;44.52832;939.4938;;;;
2022/08/11 14:05:19;;;;;;;2.6;2.4;;;;;;;27.53;44.4043;939.4691;;;;
2022/08/11 14:07:44;;;;;;;4;2.9;;;;;;;27.59;43.9834;939.4756;;;;
2022/08/11 14:10:17;;;;;;;3.5;2.3;;;;;;;27.55;43.62207;939.4922;;;;
2022/08/11 14:15:10;;;;;;;2.7;2.5;;;;;;;27.39;44.67383;939.4654;;;;
2022/08/11 14:17:43;;;;;;;2.7;2.5;;;;;;;27.13;45.21777;939.5097;;;;
2022/08/11 14:20:15;;;;;;;3.4;2.5;;;;;;;27.17;44.27246;939.4424;;;;
2022/08/11 14:22:45;;;;;;;3.6;2.7;;;;;;;27.03;45.64648;939.4285;;;;
2022/08/11 14:25:09;;;;;;;5.2;2.8;;;;;;;27.3;44.96094;939.525;;;;
2022/08/11 14:27:36;;;;;;;3.8;2.6;;;;;;;27.16;44.79492;939.478;;;;
2022/08/11 14:30:01;;;;;;;2.6;2.3;;;;;;;27.15;45.12402;939.4576;;;;
2022/08/11 14:32:35;;;;;;;3.2;2.4;;;;;;;27.18;43.5625;939.4788;;;;
2022/08/11 14:35:00;;;;;;;3.4;2.8;;;;;;;27.11;44.42188;939.4064;;;;
2022/08/11 14:37:25;;;;;;;5;2.3;;;;;;;27.27;44.10547;939.4387;;;;
2022/08/11 14:39:54;;;;;;;2.9;2.5;;;;;;;27.33;46.45898;939.489;;;;
2022/08/11 14:47:13;;;;;;;5;2.6;;;;;;;26.63;47.9375;939.462;;;;
2022/08/11 14:49:35;;;;;;;4.5;2.8;;;;;;;26.45;48.08398;939.4394;;;;
2022/08/11 14:52:04;;;;;;;4.1;2.8;;;;;;;26.48;46.89258;939.464;;;;
2022/08/11 14:56:55;;;;;;;3.7;2.7;;;;;;;26.64;45.73633;939.439;;;;
2022/08/11 14:59:20;;;;;;;3.6;2.5;;;;;;;26.55;46.42676;939.4094;;;;
2022/08/11 15:04:11;;;;;;;2.5;2.3;;;;;;;26.84;44.12207;939.4981;;;;
2022/08/11 15:06:41;;;;;;;4.3;2.7;;;;;;;26.91;45.29102;939.5101;;;;
2022/08/11 15:09:06;;;;;;;4.2;2.6;;;;;;;27.02;43.31055;939.4833;;;;
2022/08/11 15:13:56;;;;;;;3.3;2.5;;;;;;;27.32;44.91699;939.4722;;;;
2022/08/11 15:18:50;;;;;;;3.2;2.6;;;;;;;26.89;47.13672;939.4867;;;;
2022/08/11 15:26:06;;;;;;;2.5;2.3;;;;;;;27.01;43.14355;939.4283;;;;
2022/08/11 15:38:46;;;;;;;3.3;2.8;;;;;;;26.78;45.45508;939.364;;;;
2022/08/11 15:45:49;;;;;;;6;2.5;;;;;;;26.45;45.87207;939.2389;;;;
2022/08/11 15:48:11;;;;;;;3.1;2.5;;;;;;;26.45;46.90039;939.2793;;;;
2022/08/11 15:50:41;;;;;;;3.6;2.7;;;;;;;26.09;48.95703;939.2283;;;;
2022/08/11 15:53:06;;;;;;;3.1;2.5;;;;;;;26.09;47.47852;939.2217;;;;
2022/08/11 15:55:33;;;;;;;2.9;2.7;;;;;;;26.28;46.85938;939.1809;;;;
2022/08/11 16:05:14;;;;;;;3.7;2.7;;;;;;;26.16;44.73047;939.1653;;;;
2022/08/11 16:07:38;;;;;;;3.1;2.6;;;;;;;26.05;46.59961;939.177;;;;
2022/08/11 16:10:08;;;;;;;2.8;2.5;;;;;;;25.63;48.91895;939.1411;;;;
2022/08/11 16:12:33;;;;;;;3.9;2.7;;;;;;;25.71;47.04785;939.1191;;;;
2022/08/11 16:17:27;;;;;;;3.8;2.7;;;;;;;25.95;46.78906;939.1295;;;;
2022/08/11 16:19:52;;;;;;;3.2;2.9;;;;;;;26.09;46.47363;939.0685;;;;
2022/08/11 16:22:18;;;;;;;2.7;2.5;;;;;;;26.23;46.13281;939.0836;;;;
2022/08/11 16:24:45;;;;;;;3.3;2.8;;;;;;;26.35;45.81445;939.0461;;;;
2022/08/11 16:27:11;;;;;;;2.9;2.2;;;;;;;26.49;46.15918;938.9953;;;;
2022/08/11 16:29:36;;;;;;;4.3;2.9;;;;;;;26.56;44.80469;938.9739;;;;
2022/08/11 16:39:18;;;;;;;2.6;2.4;;;;;;;26.65;46.23535;938.8484;;;;
2022/08/11 16:49:02;;;;;;;2.6;2.4;;;;;;;26.65;45.80859;938.8519;;;;
2022/08/11 16:51:27;;;;;;;3.1;2.7;;;;;;;26.64;45.16895;938.861;;;;
2022/08/11 16:53:54;;;;;;;4.1;2.3;;;;;;;26.57;44.74707;938.8431;;;;
2022/08/11 16:56:19;;;;;;;2.7;2.5;;;;;;;26.58;45.19727;938.8691;;;;
2022/08/11 17:01:09;;;;;;;3.2;2.3;;;;;;;26.56;44.96973;938.8089;;;;
2022/08/11 17:13:19;;;;;;;3.5;2.7;;;;;;;26.1;45.75293;938.8395;;;;
2022/08/11 17:18:09;;;;;;;4.1;2.9;;;;;;;25.82;45.99609;938.7773;;;;
2022/08/11 17:20:34;;;;;;;4.1;2.8;;;;;;;25.6;46.55176;938.8391;;;;
2022/08/11 17:25:28;;;;;;;2.7;2.5;;;;;;;25.54;46.94824;938.8434;;;;
2022/08/11 17:27:53;;;;;;;2.9;2.5;;;;;;;25.42;46.55664;938.8792;;;;
2022/08/11 17:35:27;;;;;;;3.1;2.5;;;;;;;25.24;47.87207;938.8761;;;;
2022/08/11 17:35:29;;;;;;;3.7;2.7;;;;;;;25.11;47.01953;938.926;;;;
2022/08/11 17:37:40;;;;;;;3.1;2.4;;;;;;;25.04;47.46191;938.9361;;;;
2022/08/11 17:40:05;;;;;;;2.6;2.4;;;;;;;25.09;47.04199;938.8738;;;;
2022/08/11 17:49:46;;;;;;;3.7;2.4;;;;;;;24.67;49.08496;938.947;;;;
2022/08/11 17:59:52;;;;;;;4.5;2.3;;;;;;;24.36;48.8623;939.0399;;;;
2022/08/11 18:03:28;;;;;;;3.4;2.2;;;;;;;24.27;49.04102;939.0406;;;;
2022/08/11 18:04:29;;;;;;;3.1;2.3;;;;;;;24.19;48.58496;939.0689;;;;
2022/08/11 18:06:59;;;;;;;5.8;2.6;;;;;;;24.12;48.11719;939.0566;;;;
